Time;durP1;ratioP1;P1;durP2;ratioP2;P2;SDS_P1;SDS_P2;PMS_P1;PMS_P2;Temp;Humidity;BMP_temperature;BMP_pressure;BME280_temperature;BME280_humidity;BME280_pressure;Samples;Min_cycle;Max_cycle;Signal;HPM_P1;HPM_P2
2023/01/31 00:01:36;;;;;;;10.03;6.00;;;3.40;81.60;;;2.58;76.54;98488.63;5086653;28;21107;-73
2023/01/31 00:04:10;;;;;;;13.23;6.60;;;3.40;81.70;;;2.74;76.70;98525.31;5084196;28;20459;-74
2023/01/31 00:06:40;;;;;;;10.30;6.00;;;3.40;81.80;;;2.62;77.15;98516.66;5086651;28;20538;-74
2023/01/31 00:09:10;;;;;;;9.57;5.70;;;3.30;81.80;;;2.60;77.46;98519.50;5086197;28;20993;-73
2023/01/31 00:11:37;;;;;;;13.40;6.10;;;3.30;82.20;;;2.17;77.55;98457.88;5088735;28;20513;-74
2023/01/31 00:14:09;;;;;;;12.60;6.80;;;3.20;82.30;;;2.52;77.44;98522.94;5104849;28;20440;-75
2023/01/31 00:16:36;;;;;;;14.70;7.90;;;3.20;82.80;;;2.31;77.80;98487.69;5087901;28;20439;-73
2023/01/31 00:19:04;;;;;;;15.40;6.60;;;3.20;82.80;;;2.04;77.80;98454.72;5079970;28;20487;-74
2023/01/31 00:21:32;;;;;;;9.23;5.80;;;3.10;83.10;;;2.55;77.77;98524.44;5086788;28;20455;-74
2023/01/31 00:24:00;;;;;;;8.33;5.33;;;3.20;82.90;;;2.43;77.24;98507.81;5101754;28;20468;-73
2023/01/31 00:26:30;;;;;;;13.50;6.00;;;3.20;82.90;;;2.57;77.79;98532.31;5085008;28;23330;-73
2023/01/31 00:28:59;;;;;;;18.90;7.10;;;3.20;82.70;;;2.62;77.32;98535.34;5100384;27;20471;-73
2023/01/31 00:31:33;;;;;;;8.27;6.03;;;3.20;82.80;;;2.47;77.57;98519.84;5080070;28;20467;-73
2023/01/31 00:34:02;;;;;;;12.60;7.00;;;3.20;82.90;;;2.45;77.55;98518.34;5084604;28;21022;-74
2023/01/31 00:36:34;;;;;;;15.63;7.13;;;3.10;82.90;;;2.49;77.85;98533.88;5082429;28;20451;-73
2023/01/31 00:39:04;;;;;;;8.80;6.30;;;3.10;83.00;;;2.50;77.39;98538.25;5083732;28;20968;-74
2023/01/31 00:41:33;;;;;;;9.30;6.10;;;3.10;83.20;;;2.46;77.96;98542.19;5086673;28;20963;-73
2023/01/31 00:44:01;;;;;;;9.77;5.47;;;3.10;83.10;;;2.43;77.78;98523.81;5079117;28;20436;-75
2023/01/31 00:46:29;;;;;;;17.13;6.97;;;3.10;83.10;;;1.84;78.17;98444.19;5085927;28;20516;-73
2023/01/31 00:48:58;;;;;;;12.40;7.37;;;3.10;83.10;;;2.45;78.10;98547.69;5084440;28;20474;-74
2023/01/31 00:51:26;;;;;;;10.23;6.60;;;3.10;83.10;;;2.36;78.21;98539.59;5082554;28;20524;-73
2023/01/31 00:53:53;;;;;;;10.07;5.83;;;3.00;83.40;;;2.34;78.29;98541.56;5088434;28;20455;-74
2023/01/31 00:56:24;;;;;;;13.60;7.17;;;3.00;83.50;;;2.36;78.65;98547.59;5086013;28;20443;-74
2023/01/31 00:58:52;;;;;;;15.00;7.43;;;3.00;83.70;;;2.34;77.94;98538.06;5092473;28;20444;-74
2023/01/31 01:01:23;;;;;;;9.20;7.10;;;3.00;83.80;;;2.34;78.29;98552.25;5087692;28;20552;-74
2023/01/31 01:03:53;;;;;;;13.53;6.60;;;3.00;84.10;;;2.43;78.33;98560.31;5080742;28;20447;-73
2023/01/31 01:06:21;;;;;;;13.80;7.23;;;3.00;84.10;;;2.34;78.38;98551.38;5085691;28;20455;-74
2023/01/31 01:08:49;;;;;;;11.20;6.83;;;3.00;84.00;;;1.92;79.21;98494.94;5087097;28;20562;-74
2023/01/31 01:11:20;;;;;;;11.83;7.33;;;3.00;84.30;;;2.21;78.81;98547.28;5085104;28;20500;-74
2023/01/31 01:13:48;;;;;;;9.10;6.57;;;2.90;84.50;;;2.14;79.79;98556.84;5088850;28;20447;-73
2023/01/31 01:16:19;;;;;;;16.07;7.57;;;2.80;85.20;;;2.24;79.32;98554.97;5079438;28;20450;-76
2023/01/31 01:18:49;;;;;;;9.87;6.00;;;2.80;85.70;;;2.01;79.49;98543.00;5079927;28;20454;-74
2023/01/31 01:21:20;;;;;;;16.27;7.23;;;2.80;85.40;;;2.07;79.47;98553.09;5081862;28;20450;-72
2023/01/31 01:23:49;;;;;;;10.53;6.53;;;2.80;85.80;;;2.00;80.06;98554.66;5087654;28;20448;-75
2023/01/31 01:26:20;;;;;;;12.73;6.80;;;2.70;86.10;;;2.08;80.33;98562.78;5087983;28;20479;-73
2023/01/31 01:28:48;;;;;;;13.57;6.60;;;2.70;86.10;;;2.10;80.04;98558.13;5091465;28;20535;-75
2023/01/31 01:31:17;;;;;;;14.87;7.60;;;2.70;86.20;;;2.03;80.39;98541.03;5083003;28;20510;-74
2023/01/31 01:33:46;;;;;;;14.30;6.63;;;2.70;86.60;;;1.73;79.94;98484.34;5076847;28;20458;-74
2023/01/31 01:36:16;;;;;;;13.27;7.67;;;2.70;86.70;;;1.98;80.57;98550.31;5083753;28;20478;-74
2023/01/31 01:38:45;;;;;;;11.50;7.30;;;2.70;86.90;;;1.85;80.39;98536.47;5099533;28;20455;-75
2023/01/31 01:41:15;;;;;;;11.93;7.10;;;2.60;87.50;;;1.99;80.75;98567.16;5097508;28;20475;-74
2023/01/31 01:43:45;;;;;;;13.03;7.30;;;2.60;88.00;;;1.92;80.84;98558.06;5090844;28;20443;-74
2023/01/31 01:46:17;;;;;;;11.67;7.47;;;2.60;87.90;;;1.88;81.06;98552.16;5095817;28;20514;-74
2023/01/31 01:48:49;;;;;;;10.27;6.20;;;2.60;87.80;;;1.85;81.32;98549.81;5110665;28;20464;-75
2023/01/31 01:51:18;;;;;;;14.23;8.07;;;2.60;88.40;;;1.89;81.09;98539.69;5110156;28;20464;-74
2023/01/31 01:53:53;;;;;;;16.00;7.97;;;2.60;88.00;;;1.46;80.74;98480.72;5113621;28;20455;-76
2023/01/31 01:56:25;;;;;;;11.97;7.30;;;2.50;88.00;;;1.75;81.02;98530.38;5096155;28;20466;-72
2023/01/31 01:59:00;;;;;;;16.53;7.37;;;2.50;88.60;;;1.71;81.54;98545.81;5085331;28;20452;-75
2023/01/31 02:01:32;;;;;;;11.20;6.70;;;2.30;89.20;;;1.60;82.25;98544.16;5081811;28;20479;-74
2023/01/31 02:03:59;;;;;;;13.10;8.20;;;2.30;90.00;;;1.58;82.00;98534.63;5097166;28;20508;-75
2023/01/31 02:06:27;;;;;;;14.57;7.97;;;2.30;89.50;;;1.52;82.51;98541.38;5073917;28;20957;-74
2023/01/31 02:08:55;;;;;;;15.70;7.77;;;2.30;90.00;;;1.52;82.69;98560.88;5074775;28;20536;-74
2023/01/31 02:11:26;;;;;;;15.33;9.33;;;2.20;90.50;;;1.54;82.98;98571.34;5074503;28;20462;-75
2023/01/31 02:14:02;;;;;;;11.90;7.43;;;2.20;90.60;;;1.51;83.13;98569.00;5082839;28;20454;-74
2023/01/31 02:16:29;;;;;;;20.37;7.10;;;2.10;91.00;;;1.46;83.18;98585.38;5082189;28;20509;-75
2023/01/31 02:18:57;;;;;;;10.10;6.40;;;2.20;91.00;;;1.53;82.92;98572.34;5081890;28;20442;-75
2023/01/31 02:22:17;;;;;;;19.27;7.90;;;2.30;90.70;;;1.47;82.59;98570.28;5084288;28;20536;-73
2023/01/31 02:25:21;;;;;;;12.70;8.10;;;2.20;90.40;;;1.70;82.59;98576.91;4994727;28;20458;-74
2023/01/31 02:28:27;;;;;;;12.27;7.83;;;2.30;90.40;;;1.77;82.06;98587.84;5081348;28;20474;-74
2023/01/31 02:31:32;;;;;;;8.80;6.50;;;2.40;90.20;;;1.74;82.25;98576.63;5067999;28;20458;-73
2023/01/31 02:34:07;;;;;;;12.97;8.33;;;2.40;89.70;;;1.79;81.96;98574.38;5056903;28;20522;-73
2023/01/31 02:36:54;;;;;;;17.33;6.50;;;2.50;89.50;;;1.80;82.05;98587.53;5082224;28;21267;-74
2023/01/31 02:39:29;;;;;;;12.20;8.47;;;2.40;89.80;;;1.76;81.97;98582.69;5082201;28;20455;-73
2023/01/31 02:42:06;;;;;;;11.57;6.63;;;2.50;89.90;;;1.47;81.65;98532.97;5078215;28;20479;-73
2023/01/31 02:44:58;;;;;;;12.97;7.23;;;2.50;90.00;;;1.82;81.89;98590.94;5087657;28;20485;-72
2023/01/31 02:47:51;;;;;;;12.53;6.97;;;2.50;89.60;;;1.65;82.42;98600.50;5083264;28;20454;-74
2023/01/31 02:50:29;;;;;;;14.10;7.30;;;2.40;90.10;;;1.64;82.87;98597.97;5065007;28;21207;-73
2023/01/31 02:53:03;;;;;;;12.00;8.00;;;2.30;90.40;;;1.70;82.08;98603.56;5098806;28;20448;-72
2023/01/31 02:58:27;;;;;;;12.93;7.37;;;2.30;90.40;;;1.37;83.25;98581.75;5090634;28;20463;-75
2023/01/31 03:00:58;;;;;;;14.50;7.23;;;2.20;90.60;;;1.43;83.20;98607.00;5087733;28;20462;-75
2023/01/31 03:03:30;;;;;;;15.10;7.73;;;2.10;91.20;;;1.38;83.78;98601.25;5090354;28;20551;-75
2023/01/31 03:06:43;;;;;;;16.47;8.40;;;2.00;91.50;;;1.26;84.29;98601.41;5085927;28;20535;-74
2023/01/31 03:09:21;;;;;;;13.00;8.07;;;2.00;91.90;;;1.26;84.16;98603.22;5085610;28;21059;-75
2023/01/31 03:11:57;;;;;;;13.83;7.40;;;2.00;91.70;;;1.28;84.24;98606.56;5105892;28;21288;-75
2023/01/31 03:14:30;;;;;;;14.23;7.27;;;1.90;91.90;;;1.21;84.53;98602.81;5090771;28;20454;-74
2023/01/31 03:20:02;;;;;;;12.07;6.83;;;2.00;91.80;;;1.06;83.79;98584.59;5081055;28;20454;-73
2023/01/31 03:22:35;;;;;;;16.30;7.00;;;1.90;91.60;;;0.81;84.76;98543.44;5089987;28;20449;-74
2023/01/31 03:25:06;;;;;;;16.90;7.00;;;1.90;91.90;;;1.15;84.21;98598.88;5071763;28;20464;-74
2023/01/31 03:27:36;;;;;;;13.33;7.80;;;1.80;92.10;;;1.09;84.74;98615.44;5054042;28;20453;-74
2023/01/31 03:30:13;;;;;;;13.33;6.23;;;1.80;92.10;;;1.10;84.52;98622.44;5105118;28;20480;-74
2023/01/31 03:32:47;;;;;;;15.30;8.10;;;1.80;92.20;;;1.10;85.27;98633.06;5082522;28;20973;-73
2023/01/31 03:35:15;;;;;;;14.70;8.00;;;1.70;92.50;;;1.05;85.06;98641.47;5085602;28;20506;-75
2023/01/31 03:37:52;;;;;;;17.60;7.97;;;1.70;92.90;;;0.95;85.46;98633.47;5078300;28;20559;-77
2023/01/31 03:40:26;;;;;;;12.73;8.27;;;1.70;93.10;;;0.97;85.36;98647.50;5077999;28;20551;-75
2023/01/31 03:43:02;;;;;;;15.30;7.30;;;1.60;93.20;;;0.96;85.92;98653.78;5085795;28;20459;-73
2023/01/31 03:45:35;;;;;;;12.50;7.43;;;1.70;93.60;;;0.90;85.30;98632.22;5082881;28;20445;-72
2023/01/31 03:48:12;;;;;;;19.83;7.70;;;1.70;93.00;;;0.95;85.54;98636.16;5103344;28;20451;-73
2023/01/31 03:50:44;;;;;;;11.63;6.90;;;1.70;93.00;;;0.64;85.11;98584.84;5076120;28;20470;-76
2023/01/31 03:53:18;;;;;;;19.03;8.23;;;1.80;92.60;;;1.13;84.53;98670.88;5079923;28;20462;-74
2023/01/31 03:55:50;;;;;;;18.37;6.87;;;1.80;92.50;;;1.13;85.02;98665.56;5079697;28;20451;-74
2023/01/31 03:58:21;;;;;;;15.10;6.77;;;1.80;92.40;;;1.22;84.74;98669.22;5079767;28;21266;-74
2023/01/31 04:00:50;;;;;;;15.17;7.73;;;1.80;92.60;;;1.15;85.02;98683.25;5103289;28;20516;-74
2023/01/31 04:03:27;;;;;;;17.60;7.80;;;1.90;92.30;;;1.24;84.85;98661.09;5084005;28;20793;-74
2023/01/31 04:05:55;;;;;;;12.40;7.27;;;1.90;92.20;;;1.21;84.56;98666.69;5098638;28;20459;-73
2023/01/31 04:08:23;;;;;;;10.80;7.00;;;1.90;91.90;;;0.91;84.71;98613.47;5086314;28;20461;-74
2023/01/31 04:10:51;;;;;;;15.23;7.37;;;1.90;92.00;;;1.13;85.07;98680.69;5079569;28;20457;-73
2023/01/31 04:13:20;;;;;;;15.17;7.00;;;1.80;92.10;;;1.10;84.86;98671.16;5070451;28;20486;-73
2023/01/31 04:15:48;;;;;;;16.43;7.37;;;1.80;92.20;;;0.96;85.47;98664.44;5088558;28;20767;-74
2023/01/31 04:18:15;;;;;;;14.50;6.50;;;1.70;92.70;;;1.18;84.94;98699.75;5092484;28;20446;-73
2023/01/31 04:20:42;;;;;;;13.30;7.03;;;1.80;92.70;;;1.26;84.59;98691.06;5087767;28;20461;-73
2023/01/31 04:23:10;;;;;;;12.77;7.20;;;1.90;92.30;;;1.30;84.44;98703.16;5082155;28;20448;-75
2023/01/31 04:25:38;;;;;;;10.23;6.53;;;1.90;92.10;;;1.30;84.46;98700.47;5086435;28;20552;-74
2023/01/31 04:28:06;;;;;;;9.87;5.23;;;1.90;92.10;;;1.28;84.20;98686.44;5076082;28;20439;-75
2023/01/31 04:30:33;;;;;;;14.63;7.07;;;2.00;91.90;;;1.38;83.98;98705.94;5092762;28;20473;-75
2023/01/31 04:33:00;;;;;;;11.73;7.13;;;2.00;91.70;;;1.04;84.35;98655.75;5084536;28;20505;-76
2023/01/31 04:35:28;;;;;;;20.23;8.03;;;2.00;91.80;;;1.23;84.66;98696.69;5083794;28;20467;-75
2023/01/31 04:37:55;;;;;;;13.23;6.70;;;2.00;92.00;;;1.01;84.55;98653.38;5088405;28;20535;-75
2023/01/31 04:40:23;;;;;;;17.50;8.03;;;2.00;92.40;;;1.16;84.72;98668.94;5088054;28;20444;-74
2023/01/31 04:42:51;;;;;;;12.43;7.30;;;2.00;92.00;;;1.44;84.74;98699.22;5094083;28;20451;-75
2023/01/31 04:45:18;;;;;;;13.47;7.97;;;2.10;92.10;;;1.46;84.43;98704.41;5100463;28;20455;-75
2023/01/31 04:47:46;;;;;;;15.43;6.53;;;2.10;92.00;;;1.41;84.29;98697.66;5105028;28;20443;-75
2023/01/31 04:50:13;;;;;;;13.73;7.13;;;2.10;91.80;;;1.39;84.26;98704.97;5096977;28;20810;-74
2023/01/31 04:52:40;;;;;;;12.60;6.90;;;2.10;91.50;;;1.39;84.15;98694.31;5092133;28;20441;-75
2023/01/31 04:55:09;;;;;;;11.63;8.00;;;2.10;91.60;;;1.50;83.95;98679.19;5081365;28;21156;-74
2023/01/31 04:57:36;;;;;;;14.50;8.33;;;2.10;91.50;;;1.48;83.85;98686.47;5074952;28;21159;-74
2023/01/31 05:00:07;;;;;;;13.13;7.63;;;2.10;91.50;;;1.47;83.96;98687.44;5066782;28;21230;-74
2023/01/31 05:02:35;;;;;;;17.30;8.87;;;2.10;91.70;;;1.10;84.31;98651.72;5081684;28;20456;-73
2023/01/31 05:05:03;;;;;;;14.63;8.60;;;2.00;91.80;;;1.36;84.87;98694.59;5083259;28;20985;-75
2023/01/31 05:07:30;;;;;;;14.53;7.47;;;2.00;92.40;;;1.36;84.79;98689.25;5082460;28;20501;-75
2023/01/31 05:09:59;;;;;;;16.57;9.00;;;2.00;92.10;;;1.49;84.20;98674.81;5079163;28;21427;-76
2023/01/31 05:12:27;;;;;;;17.70;8.40;;;2.10;91.80;;;1.49;83.96;98685.47;5085746;28;20776;-74
2023/01/31 05:14:54;;;;;;;17.67;7.77;;;2.10;91.70;;;1.48;83.92;98673.97;5081584;28;21014;-75
2023/01/31 05:17:28;;;;;;;16.50;8.80;;;2.20;91.50;;;1.41;83.75;98663.03;5086005;28;20460;-73
2023/01/31 05:19:55;;;;;;;23.33;8.70;;;2.20;91.00;;;1.63;83.17;98685.06;5049537;28;20477;-75
2023/01/31 05:22:23;;;;;;;14.23;8.60;;;2.20;91.00;;;1.80;82.86;98687.97;5076715;28;21023;-75
2023/01/31 05:24:51;;;;;;;14.53;8.03;;;2.30;90.70;;;1.58;83.38;98668.63;5098599;28;20795;-76
2023/01/31 05:27:20;;;;;;;14.63;7.27;;;2.30;90.70;;;1.80;82.59;98667.47;5076010;28;20459;-76
2023/01/31 05:29:47;;;;;;;16.00;7.97;;;2.40;90.40;;;1.62;82.66;98667.38;5085542;28;20480;-77
2023/01/31 05:32:16;;;;;;;15.83;8.57;;;2.40;90.10;;;1.69;82.78;98687.13;5082189;28;20469;-76
2023/01/31 05:34:46;;;;;;;15.03;8.10;;;2.40;90.40;;;1.78;82.82;98673.97;5080008;28;20501;-76
2023/01/31 05:37:16;;;;;;;11.27;7.83;;;2.40;90.50;;;1.79;82.53;98686.31;5106927;28;20481;-75
2023/01/31 05:39:43;;;;;;;13.03;8.27;;;2.40;90.40;;;1.83;82.05;98663.69;5102190;28;20463;-73
2023/01/31 05:42:10;;;;;;;10.70;7.10;;;2.50;90.10;;;1.93;81.90;98672.53;5088425;28;20449;-74
2023/01/31 05:44:38;;;;;;;12.83;7.43;;;2.50;89.40;;;1.85;81.96;98664.41;5084956;28;20458;-71
2023/01/31 05:47:05;;;;;;;15.63;7.80;;;2.50;89.40;;;1.81;82.27;98669.16;5070867;28;20460;-72
2023/01/31 05:49:33;;;;;;;11.80;7.30;;;2.50;89.30;;;1.80;82.20;98672.00;5097369;28;20507;-74
2023/01/31 05:52:02;;;;;;;12.60;7.10;;;2.40;89.50;;;1.76;82.46;98681.25;5085902;28;20451;-73
2023/01/31 05:54:29;;;;;;;18.67;7.97;;;2.40;90.00;;;1.79;82.37;98675.63;5084249;28;20454;-74
2023/01/31 05:56:57;;;;;;;12.67;7.00;;;2.30;90.30;;;1.77;82.20;98688.28;5083601;28;20464;-77
2023/01/31 05:59:25;;;;;;;19.73;8.20;;;2.40;90.00;;;1.78;82.09;98688.09;5083715;28;20457;-75
2023/01/31 06:01:53;;;;;;;13.17;6.40;;;2.40;89.90;;;1.76;82.02;98686.59;5084322;28;20473;-76
2023/01/31 06:04:20;;;;;;;12.03;6.67;;;2.50;89.10;;;1.95;81.49;98704.34;5079496;28;20519;-78
2023/01/31 06:06:47;;;;;;;12.70;6.77;;;2.50;88.90;;;1.88;81.53;98696.06;5074839;28;20447;-77
2023/01/31 06:09:16;;;;;;;11.53;6.70;;;2.60;88.00;;;1.99;80.79;98684.44;5082264;28;20483;-75
2023/01/31 06:11:43;;;;;;;13.40;6.73;;;2.60;87.40;;;1.84;81.05;98668.03;5080665;28;20454;-81
2023/01/31 06:14:14;;;;;;;17.50;7.10;;;2.60;87.80;;;1.95;81.16;98694.53;5079129;28;20517;-74
2023/01/31 06:16:41;;;;;;;13.27;6.70;;;2.60;88.00;;;2.03;81.09;98690.31;5085915;28;20454;-73
2023/01/31 06:19:08;;;;;;;12.80;6.43;;;2.60;88.10;;;1.95;80.63;98688.34;5083660;28;20463;-75
2023/01/31 06:21:36;;;;;;;12.33;6.33;;;2.60;87.50;;;2.07;80.78;98683.72;5081929;28;20832;-77
2023/01/31 06:24:04;;;;;;;15.47;6.47;;;2.70;87.00;;;2.04;80.15;98694.66;5079906;28;20461;-76
2023/01/31 06:26:33;;;;;;;9.80;5.90;;;2.70;86.70;;;2.09;79.90;98692.41;5082456;28;20469;-76
2023/01/31 06:29:00;;;;;;;13.07;6.33;;;2.80;86.30;;;2.11;79.97;98701.09;5086907;28;20453;-78
2023/01/31 06:31:28;;;;;;;10.87;5.47;;;2.80;86.20;;;2.22;79.78;98700.94;5082077;28;20516;-79
2023/01/31 06:33:55;;;;;;;13.50;6.40;;;2.80;86.10;;;2.22;80.05;98703.59;5085151;28;20467;-76
2023/01/31 06:36:22;;;;;;;17.83;7.00;;;2.80;86.20;;;2.23;79.38;98702.63;5088521;28;20448;-76
2023/01/31 06:38:52;;;;;;;13.77;6.00;;;2.80;86.10;;;2.31;79.30;98703.69;5085494;28;20476;-75
2023/01/31 06:41:20;;;;;;;22.37;7.03;;;2.80;85.60;;;2.37;78.86;98709.28;5099403;28;20454;-75
2023/01/31 06:43:50;;;;;;;10.17;4.80;;;2.90;85.30;;;2.32;79.23;98724.03;5079859;28;20455;-75
2023/01/31 06:46:17;;;;;;;13.60;5.73;;;2.90;85.80;;;2.53;79.79;98714.03;5061069;28;20443;-75
2023/01/31 06:48:48;;;;;;;11.90;5.40;;;3.00;87.10;;;2.47;78.44;98687.09;5084270;28;20475;-76
2023/01/31 06:51:18;;;;;;;14.73;6.30;;;3.10;86.10;;;2.70;79.07;98706.22;5083067;28;20506;-76
2023/01/31 06:53:47;;;;;;;12.60;6.10;;;3.10;86.30;;;2.76;79.09;98710.94;5078501;28;20759;-78
2023/01/31 06:56:14;;;;;;;8.80;5.30;;;3.20;86.50;;;2.66;78.33;98711.00;5070852;28;20458;-76
2023/01/31 06:58:41;;;;;;;13.03;5.77;;;3.20;85.40;;;2.78;78.61;98708.16;5078652;28;20481;-76
2023/01/31 07:01:12;;;;;;;14.03;6.53;;;3.20;85.60;;;2.76;77.36;98705.63;5081828;28;20459;-76
2023/01/31 07:03:41;;;;;;;10.13;5.57;;;3.30;84.60;;;2.77;76.59;98709.97;5076315;28;20504;-75
2023/01/31 07:06:09;;;;;;;20.23;6.80;;;3.20;83.00;;;2.62;77.13;98717.63;5085851;28;20488;-75
2023/01/31 07:08:37;;;;;;;25.37;7.70;;;3.20;82.70;;;2.13;77.02;98651.13;5092127;28;20494;-76
2023/01/31 07:11:05;;;;;;;18.83;7.03;;;3.10;82.90;;;2.45;77.49;98703.22;5091286;28;20466;-77
2023/01/31 07:13:32;;;;;;;15.70;7.57;;;3.10;83.00;;;2.60;77.01;98721.41;5100277;28;20495;-76
2023/01/31 07:16:00;;;;;;;15.37;6.67;;;3.10;83.10;;;2.59;76.97;98717.94;5081750;28;20512;-76
2023/01/31 07:18:28;;;;;;;13.27;6.70;;;3.10;83.20;;;2.46;78.09;98718.25;5098084;28;20462;-74
2023/01/31 07:20:55;;;;;;;15.27;6.63;;;3.00;83.10;;;2.63;77.09;98715.78;5096194;28;20450;-75
2023/01/31 07:23:23;;;;;;;15.57;7.27;;;3.10;83.00;;;2.53;77.82;98716.69;5110759;27;20477;-75
2023/01/31 07:25:50;;;;;;;14.97;7.77;;;3.00;83.10;;;2.60;77.49;98711.59;5081884;28;20529;-75
2023/01/31 07:28:17;;;;;;;11.33;7.50;;;3.10;82.90;;;2.58;77.08;98713.59;5085092;28;20458;-74
2023/01/31 07:30:45;;;;;;;10.53;6.47;;;3.10;82.60;;;1.87;76.29;98602.97;5090084;28;20467;-75
2023/01/31 07:33:12;;;;;;;15.50;6.33;;;3.10;82.10;;;2.39;76.93;98706.50;5097137;28;21345;-74
2023/01/31 07:35:42;;;;;;;10.80;7.00;;;3.10;82.00;;;2.57;76.59;98722.53;5124377;28;20475;-72
2023/01/31 07:38:09;;;;;;;13.07;6.93;;;3.10;82.20;;;2.60;76.32;98714.28;5105488;28;20498;-73
2023/01/31 07:40:38;;;;;;;11.00;8.00;;;3.10;81.90;;;2.55;76.03;98713.84;5097238;28;20478;-77
2023/01/31 07:43:06;;;;;;;15.57;7.53;;;3.10;81.80;;;2.65;76.25;98719.16;5099455;27;20459;-77
2023/01/31 07:45:34;;;;;;;12.73;7.37;;;3.20;81.40;;;2.65;75.95;98713.81;5085991;28;20471;-76
2023/01/31 07:48:01;;;;;;;15.43;7.27;;;3.20;81.20;;;2.54;76.17;98721.03;5087257;28;20479;-74
2023/01/31 07:50:28;;;;;;;15.30;7.57;;;3.20;81.20;;;2.54;76.38;98729.03;5090559;28;20520;-76
2023/01/31 07:52:59;;;;;;;14.03;7.80;;;3.10;81.20;;;2.43;76.73;98726.53;5083927;28;20454;-76
2023/01/31 07:55:29;;;;;;;16.53;7.30;;;3.10;81.40;;;2.39;76.27;98704.66;5082625;28;20621;-77
2023/01/31 07:57:57;;;;;;;14.20;7.70;;;3.20;81.50;;;2.82;75.00;98749.56;5082236;28;20460;-76
2023/01/31 08:03:33;;;;;;;13.50;8.37;;;3.50;80.40;;;3.02;74.76;98752.97;5069278;28;20441;-75
2023/01/31 08:06:04;;;;;;;13.60;7.57;;;3.60;80.10;;;3.08;73.39;98755.03;5084257;28;20459;-76
2023/01/31 08:08:33;;;;;;;11.23;7.67;;;3.60;79.50;;;2.58;75.40;98761.59;5084637;28;20946;-76
2023/01/31 08:11:00;;;;;;;15.57;8.63;;;3.40;79.80;;;2.91;74.32;98761.19;5076886;28;20479;-81
2023/01/31 08:13:27;;;;;;;11.00;7.90;;;3.40;80.10;;;2.87;74.85;98765.97;5090725;28;20515;-77
2023/01/31 08:15:55;;;;;;;15.97;8.43;;;3.40;79.80;;;2.77;74.46;98755.34;5090435;28;20483;-77
2023/01/31 08:18:22;;;;;;;13.43;8.20;;;3.40;79.40;;;2.69;74.58;98753.41;5101742;28;20470;-78
2023/01/31 08:20:50;;;;;;;14.77;8.80;;;3.30;79.60;;;2.69;74.35;98747.25;5087965;28;20456;-79
2023/01/31 08:23:17;;;;;;;13.40;8.50;;;3.30;79.80;;;2.43;75.50;98744.34;5101760;28;20458;-81
2023/01/31 08:25:46;;;;;;;15.33;7.83;;;3.10;79.60;;;2.37;74.85;98748.47;5108947;27;20443;-79
2023/01/31 08:28:14;;;;;;;23.60;8.93;;;3.10;79.80;;;2.38;75.14;98740.31;5098656;28;20459;-80
2023/01/31 08:30:42;;;;;;;13.50;8.43;;;3.00;79.90;;;2.38;75.27;98739.50;5093708;28;20464;-77
2023/01/31 08:33:11;;;;;;;14.80;8.60;;;3.00;79.90;;;2.48;76.50;98750.94;5092979;28;20455;-79
2023/01/31 08:35:39;;;;;;;16.30;9.13;;;3.00;82.20;;;2.25;75.75;98756.63;5083742;28;20467;-78
2023/01/31 08:38:06;;;;;;;18.50;8.50;;;3.00;80.70;;;2.66;75.74;98763.53;5086617;28;21022;-79
2023/01/31 08:40:33;;;;;;;14.17;8.77;;;3.20;81.20;;;2.62;74.40;98768.31;5079902;28;20461;-76
2023/01/31 08:43:02;;;;;;;19.97;9.60;;;3.30;79.50;;;2.56;74.16;98763.56;5088953;28;20450;-79
2023/01/31 08:45:30;;;;;;;13.97;8.07;;;3.20;79.00;;;2.55;74.25;98761.88;5092423;28;20463;-76
2023/01/31 08:47:59;;;;;;;16.77;8.03;;;3.20;78.90;;;2.71;73.46;98771.09;5087669;28;20585;-79
2023/01/31 08:50:30;;;;;;;14.97;8.70;;;3.30;78.50;;;2.75;73.59;98767.16;5092065;28;21135;-78
2023/01/31 08:53:00;;;;;;;17.43;9.27;;;3.30;78.50;;;2.89;73.09;98771.16;5097687;28;20496;-78
2023/01/31 08:55:29;;;;;;;18.07;9.30;;;3.40;78.50;;;2.97;72.22;98758.75;5084652;28;20863;-76
2023/01/31 08:57:57;;;;;;;10.70;8.03;;;3.50;78.20;;;2.90;72.73;98759.50;5084275;28;20468;-77
2023/01/31 09:00:26;;;;;;;15.30;8.00;;;3.50;77.80;;;2.71;73.41;98763.94;5095317;28;20460;-77
2023/01/31 09:02:54;;;;;;;12.97;7.13;;;3.40;78.20;;;2.67;72.71;98742.03;5095640;28;20553;-76
2023/01/31 09:05:22;;;;;;;13.33;8.17;;;3.40;77.90;;;2.51;72.10;98697.31;5088069;28;20736;-79
2023/01/31 09:07:49;;;;;;;14.90;8.30;;;3.40;77.60;;;2.96;71.94;98761.59;5094413;28;20454;-78
2023/01/31 09:10:17;;;;;;;17.40;8.87;;;3.50;77.30;;;3.08;71.06;98749.69;5097850;28;20473;-77
2023/01/31 09:12:45;;;;;;;13.53;8.00;;;3.60;77.20;;;3.18;70.69;98752.31;5119963;27;20486;-77
2023/01/31 09:15:13;;;;;;;11.97;7.67;;;3.70;77.00;;;2.75;70.63;98698.59;5105394;28;20481;-75
2023/01/31 09:17:42;;;;;;;14.10;8.00;;;3.80;76.90;;;3.29;70.17;98759.28;5097748;28;20551;-78
2023/01/31 09:20:13;;;;;;;13.70;8.90;;;3.90;76.50;;;3.22;70.51;98756.38;5084372;28;20458;-80
2023/01/31 09:22:40;;;;;;;10.93;8.23;;;3.80;76.50;;;3.45;69.82;98763.13;5065640;28;20463;-79
2023/01/31 09:25:09;;;;;;;17.33;9.30;;;3.90;76.40;;;3.03;70.88;98748.47;5083975;28;20470;-79
2023/01/31 09:27:38;;;;;;;16.83;8.40;;;3.80;76.30;;;3.27;70.19;98755.94;5090569;28;20464;-77
2023/01/31 09:30:10;;;;;;;13.47;7.97;;;3.80;76.40;;;2.98;70.47;98747.09;5083966;28;20456;-77
2023/01/31 09:32:37;;;;;;;13.33;7.00;;;3.80;76.20;;;2.96;70.72;98754.41;5087917;28;20481;-79
2023/01/31 09:35:08;;;;;;;11.43;7.50;;;3.70;76.30;;;3.07;71.04;98766.72;5075905;28;20563;-78
2023/01/31 09:37:35;;;;;;;12.40;7.37;;;3.70;76.30;;;3.22;70.08;98747.50;5081520;28;20947;-77
2023/01/31 09:40:03;;;;;;;17.07;8.23;;;3.80;76.20;;;3.23;70.11;98755.38;5087551;28;20528;-76
2023/01/31 09:42:38;;;;;;;15.40;8.57;;;3.80;76.30;;;3.27;70.22;98755.94;5091762;28;20489;-78
2023/01/31 09:45:12;;;;;;;13.90;7.57;;;3.90;76.00;;;3.29;70.41;98753.09;5075931;28;20455;-77
2023/01/31 09:47:43;;;;;;;16.50;8.60;;;3.80;76.10;;;3.30;69.57;98755.63;5071566;28;20511;-77
2023/01/31 09:50:21;;;;;;;14.50;8.17;;;3.90;76.00;;;3.10;69.64;98722.84;5098199;28;20448;-79
2023/01/31 09:52:48;;;;;;;10.70;8.17;;;3.90;75.70;;;3.21;70.09;98762.72;5084967;28;20454;-78
2023/01/31 09:55:19;;;;;;;14.47;7.87;;;3.90;75.60;;;3.29;69.48;98750.44;5086096;28;20466;-80
2023/01/31 09:57:58;;;;;;;13.87;8.17;;;4.00;75.70;;;3.29;70.23;98753.94;5089007;28;20785;-77
2023/01/31 10:00:32;;;;;;;17.20;7.70;;;3.90;75.60;;;3.51;69.63;98758.03;5083619;28;20964;-79
2023/01/31 10:03:32;;;;;;;15.07;8.90;;;3.90;75.70;;;3.57;69.31;98740.53;5092272;28;20455;-77
2023/01/31 10:06:10;;;;;;;15.47;8.77;;;4.20;75.50;;;3.51;70.26;98747.31;5078524;28;20453;-78
2023/01/31 10:08:47;;;;;;;18.47;8.50;;;4.10;75.60;;;3.91;68.25;98747.84;5093992;28;20483;-76
2023/01/31 10:11:22;;;;;;;12.60;8.40;;;4.30;75.40;;;3.77;68.10;98677.03;5084733;28;20468;-77
2023/01/31 10:13:56;;;;;;;12.10;8.00;;;4.50;75.00;;;4.31;67.45;98742.94;5095803;28;20466;-74
2023/01/31 10:16:29;;;;;;;13.50;7.97;;;4.70;74.70;;;3.88;68.47;98736.63;5099838;28;20462;-77
2023/01/31 10:19:02;;;;;;;13.60;7.10;;;4.60;74.40;;;4.00;68.19;98729.19;5097858;28;20448;-77
2023/01/31 10:21:37;;;;;;;14.93;7.50;;;4.60;74.40;;;4.02;67.50;98727.19;5096099;28;20458;-75
2023/01/31 10:24:13;;;;;;;11.70;7.30;;;4.60;74.40;;;4.09;67.87;98722.91;5094269;28;20482;-76
2023/01/31 10:26:44;;;;;;;17.10;8.10;;;4.60;74.40;;;3.95;68.06;98727.81;5094007;28;20504;-77
2023/01/31 10:29:18;;;;;;;13.10;7.53;;;4.60;74.20;;;3.93;67.62;98719.13;5095344;28;20550;-76
2023/01/31 10:31:51;;;;;;;14.40;8.13;;;4.60;74.30;;;4.29;66.79;98717.34;5084766;28;20472;-78
2023/01/31 10:34:25;;;;;;;10.93;7.23;;;4.70;74.10;;;4.16;67.26;98717.78;5081005;28;20464;-77
2023/01/31 10:36:59;;;;;;;23.03;7.90;;;4.80;74.10;;;4.08;67.17;98705.19;5085235;28;20456;-78
2023/01/31 10:39:31;;;;;;;16.60;8.60;;;4.70;73.80;;;4.07;67.90;98682.09;5091422;28;20447;-76
2023/01/31 10:42:12;;;;;;;11.13;6.70;;;4.70;73.90;;;4.14;66.82;98693.84;5091257;28;20535;-75
2023/01/31 10:44:50;;;;;;;13.63;6.47;;;4.80;73.60;;;3.93;66.75;98702.22;5084523;28;20460;-73
2023/01/31 10:47:20;;;;;;;15.73;7.70;;;4.70;73.40;;;4.11;67.70;98670.09;5082032;28;20494;-81
2023/01/31 10:49:49;;;;;;;13.13;8.00;;;4.70;73.90;;;4.14;67.67;98672.44;5091718;28;20466;-78